Owendale, MI

6:06 PM EDT on September 01, 2015 (GMT -0400)
Huron Doll Repair Bad Axe (989) 269-7766 | | Change Station
CLOSE
Current Station
Personal Weather Station
Location: Bad Axe, MI
Elevation: 761 ft
Nearby Weather Stations

Elev 761 ft 43.80 °N, 83.02 °W | Updated 13 minutes ago

Partly Cloudy
Partly Cloudy
83.6 °F
Feels Like 88 °F
N
0.0
Wind Variable Wind from WSW

Today
High -- | Low -- °F
--% Chance of Precip.
Yesterday
High -- | Low -- °F
Precip. -- in
6:56 AM 8:08 PM
Waning Gibbous, 86% visible
Pressure 30.03 in
Visibility 10.0 miles
Clouds Scattered Clouds 3700 ft
Heat Index 88 °F
Dew Point 71 °F
Humidity 65%
Rainfall 0.00 in
Snow Depth Not available.
UV 2 out of 12
Pollen 10.60 out of 12
Air Quality Not available.
Flu Activity Not available.
METAR KBAX 012153Z AUTO 24004KT 10SM SCT037 29/21 A3003 RMK AO2 T02890205
Pressure 30.03 in
Visibility 10.0 miles
Clouds Scattered Clouds 3700 ft
Heat Index 88 °F
Dew Point 71 °F
Humidity 65%
Rainfall 0.00 in
Snow Depth Not available.
UV 2 out of 12
Pollen 10.60 out of 12
Air Quality Not available.
Flu Activity Not available.
METAR KBAX 012153Z AUTO 24004KT 10SM SCT037 29/21 A3003 RMK AO2 T02890205

10-Day Weather Forecast

×

Almanac

Astronomy

Sep. 01, 2015 Rise Set
Actual Time
Civil Twilight
Nautical Twilight
Astronomical Twilight
Moon
Length of Visible Light
Length of Day
Tomorrow will be .
, % of the Moon is Illuminated

Today's Extremes

State Highs State Lows

Community

WunderPhotos

Upload Photos

1,851,629 photos uploaded!

WunderBlogs® & News

Nearby

Air Quality

  Air Quality AQ Index Pollutant
Not available.

Snow Depth

Station Depth Elevation

Earthquake Activity

City Distance Mag. Time & Date
Minimum magnitude displayed is 2.5.

Coastal Water Temperatures

Place Temperature

Stations

Nearby Weather Stations

Station Location Temp. Windchill Dew Point Humidity Wind Precip. Elev Updated Type